sensor_id;sensor_type;location;lat;lon;timestamp;P1;durP1;ratioP1;P2;durP2;ratioP2
56321;SDS011;42227;6.376;-10.782;2023-03-19T00:00:55;31.85;;;14.98;;
56321;SDS011;42227;6.376;-10.782;2023-03-19T00:03:29;36.40;;;18.08;;
56321;SDS011;42227;6.376;-10.782;2023-03-19T00:05:57;45.58;;;19.25;;
56321;SDS011;42227;6.376;-10.782;2023-03-19T00:08:26;37.95;;;16.10;;
56321;SDS011;42227;6.376;-10.782;2023-03-19T00:10:54;51.75;;;21.30;;
56321;SDS011;42227;6.376;-10.782;2023-03-19T00:13:23;37.20;;;17.25;;
56321;SDS011;42227;6.376;-10.782;2023-03-19T00:15:51;32.78;;;16.67;;
56321;SDS011;42227;6.376;-10.782;2023-03-19T00:18:19;49.65;;;17.63;;
56321;SDS011;42227;6.376;-10.782;2023-03-19T00:20:47;40.60;;;17.63;;
56321;SDS011;42227;6.376;-10.782;2023-03-19T00:23:16;49.55;;;19.88;;
56321;SDS011;42227;6.376;-10.782;2023-03-19T00:25:44;43.20;;;18.73;;
56321;SDS011;42227;6.376;-10.782;2023-03-19T00:28:12;48.92;;;18.42;;
56321;SDS011;42227;6.376;-10.782;2023-03-19T00:30:40;39.55;;;17.42;;
56321;SDS011;42227;6.376;-10.782;2023-03-19T00:33:09;67.57;;;27.38;;
56321;SDS011;42227;6.376;-10.782;2023-03-19T00:35:40;69.97;;;28.95;;
56321;SDS011;42227;6.376;-10.782;2023-03-19T00:38:09;59.85;;;30.58;;
56321;SDS011;42227;6.376;-10.782;2023-03-19T00:40:37;54.28;;;26.75;;
56321;SDS011;42227;6.376;-10.782;2023-03-19T00:43:05;58.13;;;28.83;;
56321;SDS011;42227;6.376;-10.782;2023-03-19T00:45:34;57.35;;;28.38;;
56321;SDS011;42227;6.376;-10.782;2023-03-19T00:48:02;64.07;;;31.98;;
56321;SDS011;42227;6.376;-10.782;2023-03-19T00:50:30;79.55;;;33.92;;
56321;SDS011;42227;6.376;-10.782;2023-03-19T00:52:58;62.38;;;30.00;;
56321;SDS011;42227;6.376;-10.782;2023-03-19T00:55:27;58.05;;;30.52;;
56321;SDS011;42227;6.376;-10.782;2023-03-19T00:57:55;62.28;;;30.10;;
56321;SDS011;42227;6.376;-10.782;2023-03-19T01:00:23;71.00;;;29.60;;
56321;SDS011;42227;6.376;-10.782;2023-03-19T01:02:52;70.47;;;28.83;;
56321;SDS011;42227;6.376;-10.782;2023-03-19T01:05:20;54.45;;;29.65;;
56321;SDS011;42227;6.376;-10.782;2023-03-19T01:07:49;65.22;;;30.95;;
56321;SDS011;42227;6.376;-10.782;2023-03-19T01:10:18;68.30;;;30.80;;
56321;SDS011;42227;6.376;-10.782;2023-03-19T01:12:48;61.30;;;32.95;;
56321;SDS011;42227;6.376;-10.782;2023-03-19T01:15:17;64.57;;;34.35;;
56321;SDS011;42227;6.376;-10.782;2023-03-19T01:17:45;65.38;;;33.42;;
56321;SDS011;42227;6.376;-10.782;2023-03-19T01:20:14;62.53;;;34.95;;
56321;SDS011;42227;6.376;-10.782;2023-03-19T01:22:42;70.40;;;34.45;;
56321;SDS011;42227;6.376;-10.782;2023-03-19T01:25:11;61.65;;;32.42;;
56321;SDS011;42227;6.376;-10.782;2023-03-19T01:27:50;60.70;;;33.35;;
56321;SDS011;42227;6.376;-10.782;2023-03-19T01:30:19;66.00;;;32.08;;
56321;SDS011;42227;6.376;-10.782;2023-03-19T01:33:02;61.33;;;28.88;;
56321;SDS011;42227;6.376;-10.782;2023-03-19T01:35:59;66.25;;;29.52;;
56321;SDS011;42227;6.376;-10.782;2023-03-19T01:38:34;52.08;;;25.35;;
56321;SDS011;42227;6.376;-10.782;2023-03-19T01:41:05;69.80;;;31.45;;
56321;SDS011;42227;6.376;-10.782;2023-03-19T01:43:33;71.10;;;37.47;;
56321;SDS011;42227;6.376;-10.782;2023-03-19T01:46:35;66.30;;;37.03;;
56321;SDS011;42227;6.376;-10.782;2023-03-19T01:49:23;70.25;;;34.83;;
56321;SDS011;42227;6.376;-10.782;2023-03-19T01:52:14;74.97;;;38.38;;
56321;SDS011;42227;6.376;-10.782;2023-03-19T01:55:03;84.88;;;47.25;;
56321;SDS011;42227;6.376;-10.782;2023-03-19T01:57:58;82.07;;;45.45;;
56321;SDS011;42227;6.376;-10.782;2023-03-19T02:00:51;87.70;;;50.30;;
56321;SDS011;42227;6.376;-10.782;2023-03-19T02:03:20;96.28;;;49.17;;
56321;SDS011;42227;6.376;-10.782;2023-03-19T02:05:51;73.38;;;46.35;;
56321;SDS011;42227;6.376;-10.782;2023-03-19T02:08:22;85.95;;;50.72;;
56321;SDS011;42227;6.376;-10.782;2023-03-19T02:10:51;84.70;;;45.38;;
56321;SDS011;42227;6.376;-10.782;2023-03-19T02:13:21;92.18;;;44.67;;
56321;SDS011;42227;6.376;-10.782;2023-03-19T02:15:50;80.07;;;44.40;;
56321;SDS011;42227;6.376;-10.782;2023-03-19T02:18:20;101.18;;;56.78;;
56321;SDS011;42227;6.376;-10.782;2023-03-19T02:23:46;100.22;;;54.80;;
56321;SDS011;42227;6.376;-10.782;2023-03-19T02:26:49;98.78;;;52.45;;
56321;SDS011;42227;6.376;-10.782;2023-03-19T02:29:17;86.78;;;52.53;;
56321;SDS011;42227;6.376;-10.782;2023-03-19T02:31:46;90.32;;;52.42;;
56321;SDS011;42227;6.376;-10.782;2023-03-19T02:36:57;84.38;;;44.78;;
56321;SDS011;42227;6.376;-10.782;2023-03-19T02:39:30;73.32;;;41.70;;
56321;SDS011;42227;6.376;-10.782;2023-03-19T02:42:10;64.32;;;37.95;;
56321;SDS011;42227;6.376;-10.782;2023-03-19T02:44:39;68.60;;;32.58;;
56321;SDS011;42227;6.376;-10.782;2023-03-19T02:47:08;60.78;;;33.88;;
56321;SDS011;42227;6.376;-10.782;2023-03-19T02:49:36;56.13;;;27.65;;
56321;SDS011;42227;6.376;-10.782;2023-03-19T02:52:04;51.15;;;25.50;;
56321;SDS011;42227;6.376;-10.782;2023-03-19T02:54:33;58.78;;;28.50;;
56321;SDS011;42227;6.376;-10.782;2023-03-19T02:57:01;55.88;;;27.42;;
56321;SDS011;42227;6.376;-10.782;2023-03-19T02:59:30;50.97;;;29.33;;
56321;SDS011;42227;6.376;-10.782;2023-03-19T03:01:58;80.25;;;33.00;;
56321;SDS011;42227;6.376;-10.782;2023-03-19T03:04:26;54.70;;;28.52;;
56321;SDS011;42227;6.376;-10.782;2023-03-19T03:06:55;52.00;;;25.80;;
56321;SDS011;42227;6.376;-10.782;2023-03-19T03:09:23;64.75;;;28.85;;
56321;SDS011;42227;6.376;-10.782;2023-03-19T03:11:51;59.75;;;31.80;;
56321;SDS011;42227;6.376;-10.782;2023-03-19T03:14:20;56.63;;;30.65;;
56321;SDS011;42227;6.376;-10.782;2023-03-19T03:16:48;66.45;;;32.40;;
56321;SDS011;42227;6.376;-10.782;2023-03-19T03:19:16;61.50;;;31.95;;
56321;SDS011;42227;6.376;-10.782;2023-03-19T03:21:45;59.55;;;32.80;;
56321;SDS011;42227;6.376;-10.782;2023-03-19T03:24:14;75.70;;;33.47;;
56321;SDS011;42227;6.376;-10.782;2023-03-19T03:26:42;72.63;;;32.42;;
56321;SDS011;42227;6.376;-10.782;2023-03-19T03:29:10;70.53;;;34.25;;
56321;SDS011;42227;6.376;-10.782;2023-03-19T03:31:40;61.63;;;32.40;;
56321;SDS011;42227;6.376;-10.782;2023-03-19T03:34:08;51.15;;;31.58;;
56321;SDS011;42227;6.376;-10.782;2023-03-19T03:36:36;59.42;;;30.77;;
56321;SDS011;42227;6.376;-10.782;2023-03-19T03:39:05;52.47;;;28.83;;
56321;SDS011;42227;6.376;-10.782;2023-03-19T03:41:33;55.92;;;26.50;;
56321;SDS011;42227;6.376;-10.782;2023-03-19T03:44:01;62.33;;;27.20;;
56321;SDS011;42227;6.376;-10.782;2023-03-19T03:46:32;54.60;;;29.38;;
56321;SDS011;42227;6.376;-10.782;2023-03-19T03:49:10;62.78;;;29.48;;
56321;SDS011;42227;6.376;-10.782;2023-03-19T03:51:38;58.83;;;26.38;;
56321;SDS011;42227;6.376;-10.782;2023-03-19T03:54:07;67.60;;;28.00;;
56321;SDS011;42227;6.376;-10.782;2023-03-19T03:56:35;56.25;;;28.88;;
56321;SDS011;42227;6.376;-10.782;2023-03-19T03:59:03;51.28;;;26.05;;
56321;SDS011;42227;6.376;-10.782;2023-03-19T04:01:32;66.22;;;30.15;;
56321;SDS011;42227;6.376;-10.782;2023-03-19T04:04:00;62.60;;;30.58;;
56321;SDS011;42227;6.376;-10.782;2023-03-19T04:06:28;66.30;;;34.28;;
56321;SDS011;42227;6.376;-10.782;2023-03-19T04:09:19;61.92;;;31.92;;
56321;SDS011;42227;6.376;-10.782;2023-03-19T04:11:47;81.85;;;48.40;;
56321;SDS011;42227;6.376;-10.782;2023-03-19T04:14:17;108.15;;;58.67;;
56321;SDS011;42227;6.376;-10.782;2023-03-19T04:16:46;103.53;;;46.20;;
56321;SDS011;42227;6.376;-10.782;2023-03-19T04:19:14;71.35;;;39.88;;
56321;SDS011;42227;6.376;-10.782;2023-03-19T04:21:42;91.18;;;41.03;;
56321;SDS011;42227;6.376;-10.782;2023-03-19T04:24:11;90.25;;;44.80;;
56321;SDS011;42227;6.376;-10.782;2023-03-19T04:26:40;51.95;;;29.50;;
56321;SDS011;42227;6.376;-10.782;2023-03-19T04:29:08;70.35;;;34.03;;
56321;SDS011;42227;6.376;-10.782;2023-03-19T04:31:37;62.45;;;31.67;;
56321;SDS011;42227;6.376;-10.782;2023-03-19T04:34:05;73.60;;;29.05;;
56321;SDS011;42227;6.376;-10.782;2023-03-19T04:36:33;66.00;;;30.20;;
56321;SDS011;42227;6.376;-10.782;2023-03-19T04:39:02;49.70;;;28.55;;
56321;SDS011;42227;6.376;-10.782;2023-03-19T04:41:30;57.05;;;24.42;;
56321;SDS011;42227;6.376;-10.782;2023-03-19T04:44:09;48.67;;;24.08;;
56321;SDS011;42227;6.376;-10.782;2023-03-19T04:46:39;47.08;;;19.98;;
56321;SDS011;42227;6.376;-10.782;2023-03-19T04:49:08;45.38;;;21.27;;
56321;SDS011;42227;6.376;-10.782;2023-03-19T04:51:36;46.03;;;20.02;;
56321;SDS011;42227;6.376;-10.782;2023-03-19T04:54:05;50.13;;;22.45;;
56321;SDS011;42227;6.376;-10.782;2023-03-19T04:56:34;36.90;;;18.38;;
56321;SDS011;42227;6.376;-10.782;2023-03-19T04:59:03;46.72;;;21.67;;
56321;SDS011;42227;6.376;-10.782;2023-03-19T05:01:31;43.83;;;22.67;;
56321;SDS011;42227;6.376;-10.782;2023-03-19T05:04:03;47.10;;;24.85;;
56321;SDS011;42227;6.376;-10.782;2023-03-19T05:06:34;40.58;;;21.88;;
56321;SDS011;42227;6.376;-10.782;2023-03-19T05:09:04;36.67;;;20.80;;
56321;SDS011;42227;6.376;-10.782;2023-03-19T05:11:33;40.85;;;21.48;;
56321;SDS011;42227;6.376;-10.782;2023-03-19T05:14:04;115.85;;;60.00;;
56321;SDS011;42227;6.376;-10.782;2023-03-19T05:16:51;156.38;;;76.13;;
56321;SDS011;42227;6.376;-10.782;2023-03-19T05:19:20;169.13;;;85.25;;
56321;SDS011;42227;6.376;-10.782;2023-03-19T05:21:49;106.45;;;48.83;;
56321;SDS011;42227;6.376;-10.782;2023-03-19T05:24:22;126.22;;;57.28;;
56321;SDS011;42227;6.376;-10.782;2023-03-19T05:26:53;234.32;;;115.57;;
56321;SDS011;42227;6.376;-10.782;2023-03-19T05:29:38;155.10;;;72.45;;
56321;SDS011;42227;6.376;-10.782;2023-03-19T05:32:32;123.22;;;56.60;;
56321;SDS011;42227;6.376;-10.782;2023-03-19T05:35:05;103.72;;;51.35;;
56321;SDS011;42227;6.376;-10.782;2023-03-19T05:37:36;175.38;;;89.13;;
56321;SDS011;42227;6.376;-10.782;2023-03-19T05:40:05;57.05;;;31.08;;
56321;SDS011;42227;6.376;-10.782;2023-03-19T05:42:34;47.22;;;24.10;;
56321;SDS011;42227;6.376;-10.782;2023-03-19T05:45:04;36.15;;;20.20;;
56321;SDS011;42227;6.376;-10.782;2023-03-19T05:47:42;47.88;;;20.50;;
56321;SDS011;42227;6.376;-10.782;2023-03-19T05:50:13;45.15;;;24.00;;
56321;SDS011;42227;6.376;-10.782;2023-03-19T05:52:54;159.77;;;82.30;;
56321;SDS011;42227;6.376;-10.782;2023-03-19T05:55:24;53.55;;;32.40;;
56321;SDS011;42227;6.376;-10.782;2023-03-19T05:58:03;77.25;;;38.97;;
56321;SDS011;42227;6.376;-10.782;2023-03-19T06:00:32;101.75;;;46.47;;
56321;SDS011;42227;6.376;-10.782;2023-03-19T06:03:01;89.90;;;47.00;;
56321;SDS011;42227;6.376;-10.782;2023-03-19T06:05:40;46.55;;;26.45;;
56321;SDS011;42227;6.376;-10.782;2023-03-19T06:08:23;45.05;;;24.17;;
56321;SDS011;42227;6.376;-10.782;2023-03-19T06:11:18;57.03;;;24.65;;
56321;SDS011;42227;6.376;-10.782;2023-03-19T06:13:54;53.38;;;25.00;;
56321;SDS011;42227;6.376;-10.782;2023-03-19T06:16:22;53.17;;;25.13;;
56321;SDS011;42227;6.376;-10.782;2023-03-19T06:18:52;61.25;;;25.20;;
56321;SDS011;42227;6.376;-10.782;2023-03-19T06:21:22;60.40;;;24.17;;
56321;SDS011;42227;6.376;-10.782;2023-03-19T06:23:51;51.28;;;22.60;;
56321;SDS011;42227;6.376;-10.782;2023-03-19T06:26:27;40.90;;;21.10;;
56321;SDS011;42227;6.376;-10.782;2023-03-19T06:28:57;47.03;;;22.77;;
56321;SDS011;42227;6.376;-10.782;2023-03-19T06:31:25;52.40;;;24.20;;
56321;SDS011;42227;6.376;-10.782;2023-03-19T06:34:04;58.33;;;28.23;;
56321;SDS011;42227;6.376;-10.782;2023-03-19T06:36:38;44.13;;;23.08;;
56321;SDS011;42227;6.376;-10.782;2023-03-19T06:39:09;58.13;;;22.45;;
56321;SDS011;42227;6.376;-10.782;2023-03-19T06:41:38;54.45;;;21.77;;
56321;SDS011;42227;6.376;-10.782;2023-03-19T06:44:13;57.92;;;21.35;;
56321;SDS011;42227;6.376;-10.782;2023-03-19T06:46:41;38.92;;;18.83;;
56321;SDS011;42227;6.376;-10.782;2023-03-19T06:49:09;54.35;;;20.25;;
56321;SDS011;42227;6.376;-10.782;2023-03-19T06:51:37;55.58;;;20.42;;
56321;SDS011;42227;6.376;-10.782;2023-03-19T06:54:06;44.38;;;20.58;;
56321;SDS011;42227;6.376;-10.782;2023-03-19T06:56:34;46.03;;;22.45;;
56321;SDS011;42227;6.376;-10.782;2023-03-19T06:59:02;48.13;;;21.88;;
56321;SDS011;42227;6.376;-10.782;2023-03-19T07:01:31;45.90;;;22.15;;
56321;SDS011;42227;6.376;-10.782;2023-03-19T07:03:59;47.80;;;21.63;;
56321;SDS011;42227;6.376;-10.782;2023-03-19T07:06:27;58.60;;;22.92;;
56321;SDS011;42227;6.376;-10.782;2023-03-19T07:08:55;51.92;;;25.20;;
56321;SDS011;42227;6.376;-10.782;2023-03-19T07:11:23;35.00;;;19.48;;
56321;SDS011;42227;6.376;-10.782;2023-03-19T07:13:52;59.25;;;25.27;;
56321;SDS011;42227;6.376;-10.782;2023-03-19T07:16:20;49.22;;;25.77;;
56321;SDS011;42227;6.376;-10.782;2023-03-19T07:18:48;51.85;;;24.23;;
56321;SDS011;42227;6.376;-10.782;2023-03-19T07:21:16;51.72;;;23.60;;
56321;SDS011;42227;6.376;-10.782;2023-03-19T07:23:45;53.35;;;24.15;;
56321;SDS011;42227;6.376;-10.782;2023-03-19T07:26:13;42.35;;;22.85;;
56321;SDS011;42227;6.376;-10.782;2023-03-19T07:28:41;62.78;;;24.42;;
56321;SDS011;42227;6.376;-10.782;2023-03-19T07:31:10;39.78;;;21.88;;
56321;SDS011;42227;6.376;-10.782;2023-03-19T07:33:38;37.05;;;20.83;;
56321;SDS011;42227;6.376;-10.782;2023-03-19T07:36:06;43.40;;;23.42;;
56321;SDS011;42227;6.376;-10.782;2023-03-19T07:38:35;52.47;;;27.13;;
56321;SDS011;42227;6.376;-10.782;2023-03-19T07:41:03;41.28;;;21.08;;
56321;SDS011;42227;6.376;-10.782;2023-03-19T07:43:32;51.25;;;22.35;;
56321;SDS011;42227;6.376;-10.782;2023-03-19T07:46:00;37.78;;;21.17;;
56321;SDS011;42227;6.376;-10.782;2023-03-19T07:48:28;93.60;;;46.20;;
56321;SDS011;42227;6.376;-10.782;2023-03-19T07:50:57;63.97;;;31.33;;
56321;SDS011;42227;6.376;-10.782;2023-03-19T07:53:25;131.82;;;65.88;;
56321;SDS011;42227;6.376;-10.782;2023-03-19T07:55:53;179.95;;;87.70;;
56321;SDS011;42227;6.376;-10.782;2023-03-19T07:58:21;105.22;;;45.10;;
56321;SDS011;42227;6.376;-10.782;2023-03-19T08:00:50;86.80;;;42.03;;
56321;SDS011;42227;6.376;-10.782;2023-03-19T08:03:19;172.13;;;86.32;;
56321;SDS011;42227;6.376;-10.782;2023-03-19T08:05:47;131.55;;;66.70;;
56321;SDS011;42227;6.376;-10.782;2023-03-19T08:08:16;95.78;;;49.53;;
56321;SDS011;42227;6.376;-10.782;2023-03-19T08:10:44;136.25;;;74.03;;
56321;SDS011;42227;6.376;-10.782;2023-03-19T08:13:13;195.32;;;103.22;;
56321;SDS011;42227;6.376;-10.782;2023-03-19T08:15:41;146.20;;;74.80;;
56321;SDS011;42227;6.376;-10.782;2023-03-19T08:18:09;157.07;;;90.60;;
56321;SDS011;42227;6.376;-10.782;2023-03-19T08:20:38;136.65;;;78.35;;
56321;SDS011;42227;6.376;-10.782;2023-03-19T08:23:06;56.60;;;32.38;;
56321;SDS011;42227;6.376;-10.782;2023-03-19T08:25:34;51.17;;;27.92;;
56321;SDS011;42227;6.376;-10.782;2023-03-19T08:28:02;34.13;;;22.55;;
56321;SDS011;42227;6.376;-10.782;2023-03-19T08:30:31;115.60;;;65.93;;
56321;SDS011;42227;6.376;-10.782;2023-03-19T08:33:00;50.10;;;26.70;;
56321;SDS011;42227;6.376;-10.782;2023-03-19T08:35:29;111.85;;;59.20;;
56321;SDS011;42227;6.376;-10.782;2023-03-19T08:37:57;50.72;;;25.77;;
56321;SDS011;42227;6.376;-10.782;2023-03-19T08:40:25;59.50;;;27.38;;
56321;SDS011;42227;6.376;-10.782;2023-03-19T08:42:54;68.15;;;39.40;;
56321;SDS011;42227;6.376;-10.782;2023-03-19T08:45:22;69.40;;;38.50;;
56321;SDS011;42227;6.376;-10.782;2023-03-19T08:47:50;43.10;;;24.38;;
56321;SDS011;42227;6.376;-10.782;2023-03-19T08:50:19;51.08;;;28.38;;
56321;SDS011;42227;6.376;-10.782;2023-03-19T08:52:47;59.70;;;31.50;;
56321;SDS011;42227;6.376;-10.782;2023-03-19T08:55:16;34.28;;;16.55;;
56321;SDS011;42227;6.376;-10.782;2023-03-19T08:57:44;123.80;;;77.15;;
56321;SDS011;42227;6.376;-10.782;2023-03-19T09:00:13;52.80;;;26.92;;
56321;SDS011;42227;6.376;-10.782;2023-03-19T09:02:41;69.20;;;43.80;;
56321;SDS011;42227;6.376;-10.782;2023-03-19T09:05:10;34.17;;;22.20;;
56321;SDS011;42227;6.376;-10.782;2023-03-19T09:07:38;42.08;;;15.98;;
56321;SDS011;42227;6.376;-10.782;2023-03-19T09:10:06;46.35;;;22.75;;
56321;SDS011;42227;6.376;-10.782;2023-03-19T09:12:35;74.90;;;41.83;;
56321;SDS011;42227;6.376;-10.782;2023-03-19T09:15:03;74.38;;;37.60;;
56321;SDS011;42227;6.376;-10.782;2023-03-19T09:17:32;56.47;;;21.58;;
56321;SDS011;42227;6.376;-10.782;2023-03-19T09:20:00;70.78;;;39.92;;
56321;SDS011;42227;6.376;-10.782;2023-03-19T09:22:28;45.58;;;21.92;;
56321;SDS011;42227;6.376;-10.782;2023-03-19T09:24:57;36.75;;;19.02;;
56321;SDS011;42227;6.376;-10.782;2023-03-19T09:27:25;30.33;;;17.73;;
56321;SDS011;42227;6.376;-10.782;2023-03-19T09:29:53;34.13;;;16.65;;
56321;SDS011;42227;6.376;-10.782;2023-03-19T09:32:22;34.95;;;17.85;;
56321;SDS011;42227;6.376;-10.782;2023-03-19T09:34:50;25.92;;;14.95;;
56321;SDS011;42227;6.376;-10.782;2023-03-19T09:37:18;39.67;;;18.45;;
56321;SDS011;42227;6.376;-10.782;2023-03-19T09:39:46;28.95;;;16.73;;
56321;SDS011;42227;6.376;-10.782;2023-03-19T09:42:19;29.60;;;15.60;;
56321;SDS011;42227;6.376;-10.782;2023-03-19T09:44:52;26.13;;;12.40;;
56321;SDS011;42227;6.376;-10.782;2023-03-19T09:50:00;29.77;;;13.27;;
56321;SDS011;42227;6.376;-10.782;2023-03-19T09:52:48;32.72;;;15.65;;
56321;SDS011;42227;6.376;-10.782;2023-03-19T09:58:14;32.25;;;15.82;;
56321;SDS011;42227;6.376;-10.782;2023-03-19T10:00:57;36.08;;;16.90;;
56321;SDS011;42227;6.376;-10.782;2023-03-19T10:06:47;28.13;;;13.88;;
56321;SDS011;42227;6.376;-10.782;2023-03-19T10:17:37;36.17;;;19.95;;
56321;SDS011;42227;6.376;-10.782;2023-03-19T10:20:43;26.05;;;12.15;;
56321;SDS011;42227;6.376;-10.782;2023-03-19T10:23:36;23.88;;;10.95;;
56321;SDS011;42227;6.376;-10.782;2023-03-19T10:26:15;22.58;;;12.20;;
56321;SDS011;42227;6.376;-10.782;2023-03-19T10:29:10;50.50;;;19.95;;
56321;SDS011;42227;6.376;-10.782;2023-03-19T10:37:05;25.73;;;10.00;;
56321;SDS011;42227;6.376;-10.782;2023-03-19T10:39:41;39.88;;;17.40;;
56321;SDS011;42227;6.376;-10.782;2023-03-19T10:47:56;21.27;;;10.80;;
56321;SDS011;42227;6.376;-10.782;2023-03-19T10:55:46;35.67;;;14.65;;
56321;SDS011;42227;6.376;-10.782;2023-03-19T10:58:24;37.42;;;15.35;;
56321;SDS011;42227;6.376;-10.782;2023-03-19T11:00:55;28.08;;;13.32;;
56321;SDS011;42227;6.376;-10.782;2023-03-19T11:06:06;24.88;;;10.20;;
56321;SDS011;42227;6.376;-10.782;2023-03-19T11:08:37;30.42;;;10.95;;
56321;SDS011;42227;6.376;-10.782;2023-03-19T11:11:06;28.25;;;10.93;;
56321;SDS011;42227;6.376;-10.782;2023-03-19T11:13:48;23.73;;;11.02;;
56321;SDS011;42227;6.376;-10.782;2023-03-19T11:16:17;32.88;;;11.00;;
56321;SDS011;42227;6.376;-10.782;2023-03-19T11:18:46;24.95;;;11.18;;
56321;SDS011;42227;6.376;-10.782;2023-03-19T11:21:26;29.08;;;13.38;;
56321;SDS011;42227;6.376;-10.782;2023-03-19T11:26:29;36.35;;;14.43;;
56321;SDS011;42227;6.376;-10.782;2023-03-19T11:29:01;32.17;;;12.55;;
56321;SDS011;42227;6.376;-10.782;2023-03-19T11:32:08;25.70;;;10.70;;
56321;SDS011;42227;6.376;-10.782;2023-03-19T11:34:58;32.80;;;12.40;;
56321;SDS011;42227;6.376;-10.782;2023-03-19T11:37:32;20.85;;;11.80;;
56321;SDS011;42227;6.376;-10.782;2023-03-19T11:49:03;29.25;;;11.23;;
56321;SDS011;42227;6.376;-10.782;2023-03-19T11:52:11;30.67;;;11.43;;
56321;SDS011;42227;6.376;-10.782;2023-03-19T12:05:54;26.42;;;11.38;;
56321;SDS011;42227;6.376;-10.782;2023-03-19T12:17:22;29.02;;;11.35;;
56321;SDS011;42227;6.376;-10.782;2023-03-19T12:28:17;24.98;;;11.52;;
56321;SDS011;42227;6.376;-10.782;2023-03-19T12:36:16;24.45;;;11.43;;
56321;SDS011;42227;6.376;-10.782;2023-03-19T12:38:53;24.27;;;9.93;;
56321;SDS011;42227;6.376;-10.782;2023-03-19T12:41:46;19.40;;;9.45;;
56321;SDS011;42227;6.376;-10.782;2023-03-19T12:52:23;21.95;;;9.50;;
56321;SDS011;42227;6.376;-10.782;2023-03-19T12:55:19;25.67;;;11.20;;
56321;SDS011;42227;6.376;-10.782;2023-03-19T12:58:17;37.97;;;14.15;;
56321;SDS011;42227;6.376;-10.782;2023-03-19T13:01:14;34.85;;;11.00;;
56321;SDS011;42227;6.376;-10.782;2023-03-19T13:06:21;20.95;;;10.60;;
56321;SDS011;42227;6.376;-10.782;2023-03-19T13:09:28;28.02;;;11.02;;
56321;SDS011;42227;6.376;-10.782;2023-03-19T13:12:09;35.92;;;11.38;;
56321;SDS011;42227;6.376;-10.782;2023-03-19T13:14:47;30.85;;;11.50;;
56321;SDS011;42227;6.376;-10.782;2023-03-19T13:23:21;18.08;;;10.10;;
56321;SDS011;42227;6.376;-10.782;2023-03-19T13:25:53;21.75;;;10.68;;
56321;SDS011;42227;6.376;-10.782;2023-03-19T13:28:31;28.50;;;11.35;;
56321;SDS011;42227;6.376;-10.782;2023-03-19T13:31:02;25.70;;;10.63;;
56321;SDS011;42227;6.376;-10.782;2023-03-19T13:33:35;22.60;;;10.10;;
56321;SDS011;42227;6.376;-10.782;2023-03-19T13:36:04;24.38;;;10.77;;
56321;SDS011;42227;6.376;-10.782;2023-03-19T13:38:48;29.65;;;11.15;;
56321;SDS011;42227;6.376;-10.782;2023-03-19T13:42:05;22.55;;;11.68;;
56321;SDS011;42227;6.376;-10.782;2023-03-19T13:45:32;27.48;;;12.77;;
56321;SDS011;42227;6.376;-10.782;2023-03-19T13:47:36;27.73;;;10.30;;
56321;SDS011;42227;6.376;-10.782;2023-03-19T14:06:02;37.47;;;9.68;;
56321;SDS011;42227;6.376;-10.782;2023-03-19T14:08:43;18.88;;;9.43;;
56321;SDS011;42227;6.376;-10.782;2023-03-19T14:13:49;41.58;;;10.90;;
56321;SDS011;42227;6.376;-10.782;2023-03-19T14:16:29;24.17;;;9.02;;
56321;SDS011;42227;6.376;-10.782;2023-03-19T14:19:18;29.58;;;9.02;;
56321;SDS011;42227;6.376;-10.782;2023-03-19T14:27:17;25.95;;;10.90;;
56321;SDS011;42227;6.376;-10.782;2023-03-19T14:30:00;28.20;;;10.27;;
56321;SDS011;42227;6.376;-10.782;2023-03-19T14:32:37;13.38;;;8.05;;
56321;SDS011;42227;6.376;-10.782;2023-03-19T14:35:12;24.23;;;10.07;;
56321;SDS011;42227;6.376;-10.782;2023-03-19T14:37:45;23.05;;;9.13;;
56321;SDS011;42227;6.376;-10.782;2023-03-19T14:42:56;23.23;;;9.30;;
56321;SDS011;42227;6.376;-10.782;2023-03-19T14:51:18;25.00;;;10.00;;
56321;SDS011;42227;6.376;-10.782;2023-03-19T14:57:14;22.92;;;9.07;;
56321;SDS011;42227;6.376;-10.782;2023-03-19T14:59:45;17.45;;;8.60;;
56321;SDS011;42227;6.376;-10.782;2023-03-19T15:05:39;20.88;;;9.45;;
56321;SDS011;42227;6.376;-10.782;2023-03-19T15:08:04;25.25;;;9.43;;
56321;SDS011;42227;6.376;-10.782;2023-03-19T15:10:43;16.25;;;7.55;;
56321;SDS011;42227;6.376;-10.782;2023-03-19T15:18:35;22.55;;;10.20;;
56321;SDS011;42227;6.376;-10.782;2023-03-19T15:21:05;23.92;;;9.65;;
56321;SDS011;42227;6.376;-10.782;2023-03-19T15:23:33;28.10;;;10.52;;
56321;SDS011;42227;6.376;-10.782;2023-03-19T15:26:02;30.60;;;13.32;;
56321;SDS011;42227;6.376;-10.782;2023-03-19T15:28:32;29.70;;;11.32;;
56321;SDS011;42227;6.376;-10.782;2023-03-19T15:31:11;30.80;;;9.82;;
56321;SDS011;42227;6.376;-10.782;2023-03-19T15:33:59;29.70;;;10.52;;
56321;SDS011;42227;6.376;-10.782;2023-03-19T15:36:27;19.70;;;11.15;;
56321;SDS011;42227;6.376;-10.782;2023-03-19T15:39:02;24.13;;;9.32;;
56321;SDS011;42227;6.376;-10.782;2023-03-19T15:41:33;28.15;;;11.80;;
56321;SDS011;42227;6.376;-10.782;2023-03-19T15:44:05;29.48;;;10.98;;
56321;SDS011;42227;6.376;-10.782;2023-03-19T15:46:38;30.73;;;11.13;;
56321;SDS011;42227;6.376;-10.782;2023-03-19T15:49:12;21.50;;;9.82;;
56321;SDS011;42227;6.376;-10.782;2023-03-19T15:51:43;24.10;;;10.68;;
56321;SDS011;42227;6.376;-10.782;2023-03-19T15:54:14;17.08;;;9.95;;
56321;SDS011;42227;6.376;-10.782;2023-03-19T15:56:42;29.02;;;9.50;;
56321;SDS011;42227;6.376;-10.782;2023-03-19T15:59:11;24.20;;;11.48;;
56321;SDS011;42227;6.376;-10.782;2023-03-19T16:01:39;25.08;;;10.75;;
56321;SDS011;42227;6.376;-10.782;2023-03-19T16:04:11;26.55;;;10.63;;
56321;SDS011;42227;6.376;-10.782;2023-03-19T16:06:48;23.13;;;11.10;;
56321;SDS011;42227;6.376;-10.782;2023-03-19T16:11:48;22.47;;;8.50;;
56321;SDS011;42227;6.376;-10.782;2023-03-19T16:16:58;29.25;;;10.88;;
56321;SDS011;42227;6.376;-10.782;2023-03-19T16:19:37;20.98;;;10.10;;
56321;SDS011;42227;6.376;-10.782;2023-03-19T16:22:24;17.95;;;7.78;;
56321;SDS011;42227;6.376;-10.782;2023-03-19T16:24:57;15.85;;;7.78;;
56321;SDS011;42227;6.376;-10.782;2023-03-19T16:27:35;19.30;;;10.73;;
56321;SDS011;42227;6.376;-10.782;2023-03-19T16:30:24;25.92;;;9.45;;
56321;SDS011;42227;6.376;-10.782;2023-03-19T16:33:03;24.88;;;8.77;;
56321;SDS011;42227;6.376;-10.782;2023-03-19T16:35:33;26.13;;;9.80;;
56321;SDS011;42227;6.376;-10.782;2023-03-19T16:38:21;24.83;;;7.97;;
56321;SDS011;42227;6.376;-10.782;2023-03-19T16:41:36;24.30;;;10.07;;
56321;SDS011;42227;6.376;-10.782;2023-03-19T16:43:42;17.85;;;9.77;;
56321;SDS011;42227;6.376;-10.782;2023-03-19T16:46:12;32.85;;;12.30;;
56321;SDS011;42227;6.376;-10.782;2023-03-19T16:48:41;39.22;;;8.98;;
56321;SDS011;42227;6.376;-10.782;2023-03-19T16:51:13;26.17;;;9.73;;
56321;SDS011;42227;6.376;-10.782;2023-03-19T16:53:44;25.52;;;10.70;;
56321;SDS011;42227;6.376;-10.782;2023-03-19T16:56:14;27.45;;;9.73;;
56321;SDS011;42227;6.376;-10.782;2023-03-19T16:58:43;38.65;;;11.65;;
56321;SDS011;42227;6.376;-10.782;2023-03-19T17:03:48;43.08;;;11.50;;
56321;SDS011;42227;6.376;-10.782;2023-03-19T17:06:18;26.33;;;10.13;;
56321;SDS011;42227;6.376;-10.782;2023-03-19T17:08:47;17.10;;;8.30;;
56321;SDS011;42227;6.376;-10.782;2023-03-19T17:11:28;20.70;;;10.07;;
56321;SDS011;42227;6.376;-10.782;2023-03-19T17:14:02;27.67;;;8.45;;
56321;SDS011;42227;6.376;-10.782;2023-03-19T17:16:31;14.10;;;8.48;;